Time;durP1;ratioP1;P1;durP2;ratioP2;P2;SDS_P1;SDS_P2;PMS_P1;PMS_P2;Temp;Humidity;BMP_temperature;BMP_pressure;BME280_temperature;BME280_humidity;BME280_pressure;Samples;Min_cycle;Max_cycle;Signal;HPM_P1;HPM_P2
2022/05/23 00:01:32;;;;;;;;;;;20.80;50.40;;;;;;484748;246;1201;-76
2022/05/23 00:03:35;;;;;;;;;;;20.70;50.50;;;;;;484659;246;967;-76
2022/05/23 00:05:34;;;;;;;;;;;20.70;50.60;;;;;;484540;246;1593;-76
2022/05/23 00:07:36;;;;;;;;;;;20.70;50.70;;;;;;484664;246;1084;-76
2022/05/23 00:09:37;;;;;;;;;;;20.80;50.50;;;;;;484706;246;1155;-76
2022/05/23 00:11:38;;;;;;;;;;;20.70;50.50;;;;;;484717;246;1111;-76
2022/05/23 00:13:40;;;;;;;;;;;20.70;50.60;;;;;;484704;246;1053;-76
2022/05/23 00:15:41;;;;;;;;;;;20.60;50.80;;;;;;484675;246;1193;-76
2022/05/23 00:17:43;;;;;;;;;;;20.60;50.90;;;;;;484734;246;946;-76
2022/05/23 00:19:44;;;;;;;;;;;20.70;50.60;;;;;;484644;246;2175;-76
2022/05/23 00:21:46;;;;;;;;;;;21.00;50.00;;;;;;484565;246;936;-76
2022/05/23 00:23:47;;;;;;;;;;;21.10;49.80;;;;;;484629;246;990;-77
2022/05/23 00:25:48;;;;;;;;;;;21.10;49.80;;;;;;484654;246;953;-76
2022/05/23 00:27:50;;;;;;;;;;;21.10;49.60;;;;;;484694;246;997;-76
2022/05/23 00:29:51;;;;;;;;;;;21.00;49.80;;;;;;484651;246;1103;-76
2022/05/23 00:36:31;;;;;;;;;;;20.90;50.20;;;;;;484619;246;957;-76
2022/05/23 00:38:33;;;;;;;;;;;20.90;50.20;;;;;;484663;246;1046;-76
2022/05/23 00:40:33;;;;;;;;;;;21.00;50.20;;;;;;484975;246;2195;-76
2022/05/23 00:44:54;;;;;;;;;;;21.20;49.50;;;;;;484629;246;1542;-76
2022/05/23 00:46:55;;;;;;;;;;;21.30;49.20;;;;;;484674;246;993;-76
2022/05/23 00:48:57;;;;;;;;;;;21.40;49.20;;;;;;484686;246;1017;-76
2022/05/23 00:50:58;;;;;;;;;;;21.50;48.90;;;;;;484637;246;1042;-76
2022/05/23 00:52:59;;;;;;;;;;;21.50;48.80;;;;;;484647;246;1122;-76
2022/05/23 00:55:01;;;;;;;;;;;21.50;48.70;;;;;;484617;242;1108;-76
2022/05/23 00:57:02;;;;;;;;;;;21.60;48.60;;;;;;484753;246;1147;-76
2022/05/23 00:59:03;;;;;;;;;;;21.60;48.60;;;;;;484652;246;1132;-76
2022/05/23 01:01:05;;;;;;;;;;;21.70;48.40;;;;;;484791;246;2207;-76
2022/05/23 01:03:06;;;;;;;;;;;21.70;48.30;;;;;;484989;246;1442;-77
2022/05/23 01:05:08;;;;;;;;;;;21.90;48.00;;;;;;484831;246;1288;-76
2022/05/23 01:07:09;;;;;;;;;;;21.80;48.10;;;;;;484610;246;1097;-76
2022/05/23 01:09:10;;;;;;;;;;;21.90;48.20;;;;;;484639;246;1202;-76
2022/05/23 01:11:11;;;;;;;;;;;21.80;48.20;;;;;;484682;246;1117;-76
2022/05/23 01:13:13;;;;;;;;;;;21.80;48.30;;;;;;485047;246;1065;-76
2022/05/23 01:15:14;;;;;;;;;;;21.70;48.30;;;;;;484650;243;1207;-76
2022/05/23 01:17:15;;;;;;;;;;;21.70;48.40;;;;;;484926;246;1069;-76
2022/05/23 01:19:17;;;;;;;;;;;21.80;48.20;;;;;;484637;246;954;-76
2022/05/23 01:21:18;;;;;;;;;;;21.70;48.30;;;;;;484626;246;2187;-76
2022/05/23 01:23:19;;;;;;;;;;;21.70;48.40;;;;;;484684;246;1050;-76
2022/05/23 01:25:21;;;;;;;;;;;21.80;48.30;;;;;;484666;246;1026;-76
2022/05/23 01:27:22;;;;;;;;;;;21.80;48.40;;;;;;484897;246;1057;-76
2022/05/23 01:29:23;;;;;;;;;;;21.70;48.40;;;;;;484652;246;953;-76
2022/05/23 01:31:25;;;;;;;;;;;21.70;48.40;;;;;;484657;246;1219;-76
2022/05/23 01:33:26;;;;;;;;;;;21.70;48.50;;;;;;484673;246;975;-76
2022/05/23 01:35:27;;;;;;;;;;;21.60;48.50;;;;;;484671;246;1057;-76
2022/05/23 01:37:29;;;;;;;;;;;21.70;48.50;;;;;;484675;246;1127;-76
2022/05/23 01:39:30;;;;;;;;;;;21.60;48.60;;;;;;484666;246;952;-76
2022/05/23 01:41:31;;;;;;;;;;;21.70;48.60;;;;;;484703;246;2191;-76
2022/05/23 01:43:33;;;;;;;;;;;21.70;48.40;;;;;;484606;246;1017;-76
2022/05/23 01:45:34;;;;;;;;;;;21.70;48.40;;;;;;484638;246;1133;-76
2022/05/23 01:47:35;;;;;;;;;;;21.80;48.30;;;;;;484614;246;1078;-76
2022/05/23 01:49:37;;;;;;;;;;;21.80;48.20;;;;;;484644;246;962;-76
2022/05/23 01:51:38;;;;;;;;;;;21.80;48.20;;;;;;484592;246;1210;-76
2022/05/23 01:53:41;;;;;;;;;;;21.80;48.10;;;;;;484656;246;957;-76
2022/05/23 01:55:41;;;;;;;;;;;21.80;48.20;;;;;;484504;246;1311;-75
2022/05/23 01:57:42;;;;;;;;;;;21.80;48.20;;;;;;484638;246;1078;-76
2022/05/23 02:02:03;;;;;;;;;;;21.80;48.30;;;;;;484624;246;1536;-76
2022/05/23 02:04:04;;;;;;;;;;;21.80;48.30;;;;;;484851;246;1181;-76
2022/05/23 02:06:06;;;;;;;;;;;21.90;48.20;;;;;;484802;246;1238;-76
2022/05/23 02:08:07;;;;;;;;;;;21.80;48.20;;;;;;484664;243;1067;-76
2022/05/23 02:10:09;;;;;;;;;;;21.90;47.90;;;;;;484926;246;1141;-77
2022/05/23 02:12:10;;;;;;;;;;;21.80;48.00;;;;;;484826;242;1298;-76
2022/05/23 02:14:11;;;;;;;;;;;21.90;48.10;;;;;;484625;246;1083;-76
2022/05/23 02:16:12;;;;;;;;;;;21.90;48.00;;;;;;484805;246;1146;-76
2022/05/23 02:18:14;;;;;;;;;;;21.90;48.00;;;;;;484851;242;1105;-76
2022/05/23 02:20:15;;;;;;;;;;;21.80;48.10;;;;;;484515;246;2195;-76
2022/05/23 02:22:17;;;;;;;;;;;21.80;48.00;;;;;;484695;246;1080;-76
2022/05/23 02:24:18;;;;;;;;;;;21.90;47.90;;;;;;484614;246;1165;-76
2022/05/23 02:26:19;;;;;;;;;;;21.80;48.20;;;;;;484630;242;1111;-76
2022/05/23 02:28:20;;;;;;;;;;;21.70;48.20;;;;;;484573;246;1173;-76
2022/05/23 02:30:22;;;;;;;;;;;21.70;48.20;;;;;;484654;246;1133;-76
2022/05/23 02:32:23;;;;;;;;;;;21.70;48.20;;;;;;484611;246;1133;-76
2022/05/23 02:34:24;;;;;;;;;;;21.60;48.30;;;;;;484673;246;1152;-76
2022/05/23 02:36:26;;;;;;;;;;;21.60;48.40;;;;;;484669;246;1113;-76
2022/05/23 02:38:27;;;;;;;;;;;21.50;48.50;;;;;;484764;246;1354;-76
2022/05/23 02:40:28;;;;;;;;;;;21.70;48.30;;;;;;484668;246;2179;-76
2022/05/23 02:42:30;;;;;;;;;;;21.80;48.00;;;;;;484521;246;1186;-76
2022/05/23 02:44:31;;;;;;;;;;;21.80;48.10;;;;;;484616;246;1142;-76
2022/05/23 02:46:32;;;;;;;;;;;21.70;48.10;;;;;;484724;246;1204;-76
2022/05/23 02:48:34;;;;;;;;;;;21.60;48.20;;;;;;484645;246;1155;-76
2022/05/23 02:50:35;;;;;;;;;;;21.60;48.20;;;;;;484619;246;1270;-76
2022/05/23 02:52:37;;;;;;;;;;;21.50;48.20;;;;;;484685;246;1205;-76
2022/05/23 02:54:38;;;;;;;;;;;21.60;48.30;;;;;;484882;246;1223;-76
2022/05/23 02:56:39;;;;;;;;;;;21.60;48.40;;;;;;484879;246;1176;-76
2022/05/23 02:58:41;;;;;;;;;;;21.60;48.40;;;;;;484870;246;1162;-76
2022/05/23 03:00:42;;;;;;;;;;;21.60;48.20;;;;;;484653;246;2216;-76
2022/05/23 03:05:03;;;;;;;;;;;21.70;48.40;;;;;;484672;246;1098;-76
2022/05/23 03:07:04;;;;;;;;;;;21.60;48.40;;;;;;484724;246;1134;-76
2022/05/23 03:09:05;;;;;;;;;;;21.50;48.50;;;;;;484640;246;1349;-76
2022/05/23 03:11:07;;;;;;;;;;;21.60;48.30;;;;;;484670;246;1242;-76
2022/05/23 03:13:08;;;;;;;;;;;21.50;48.30;;;;;;484753;246;1451;-76
2022/05/23 03:15:10;;;;;;;;;;;21.50;48.50;;;;;;485031;246;1091;-76
2022/05/23 03:17:10;;;;;;;;;;;21.50;48.60;;;;;;484603;246;1447;-76
2022/05/23 03:19:12;;;;;;;;;;;21.30;49.00;;;;;;484673;246;988;-76
2022/05/23 03:26:58;;;;;;;;;;;21.40;49.00;;;;;;484595;246;2180;-76
2022/05/23 03:27:53;;;;;;;;;;;21.30;48.90;;;;;;484608;246;1067;-76
2022/05/23 03:29:55;;;;;;;;;;;21.50;48.90;;;;;;484625;246;1012;-76
2022/05/23 03:31:56;;;;;;;;;;;21.50;48.80;;;;;;484589;246;1191;-76
2022/05/23 03:33:57;;;;;;;;;;;21.50;48.70;;;;;;484552;246;1217;-76
2022/05/23 03:35:59;;;;;;;;;;;21.50;48.80;;;;;;484566;246;1098;-77
2022/05/23 03:38:00;;;;;;;;;;;21.60;48.70;;;;;;484610;246;1115;-76
2022/05/23 03:40:01;;;;;;;;;;;21.60;48.70;;;;;;484941;246;1128;-76
2022/05/23 03:42:03;;;;;;;;;;;21.60;48.60;;;;;;484502;246;2203;-76
2022/05/23 03:44:05;;;;;;;;;;;21.50;48.60;;;;;;484551;246;1158;-76
2022/05/23 03:46:05;;;;;;;;;;;21.50;48.60;;;;;;484524;246;1481;-76
2022/05/23 03:48:07;;;;;;;;;;;21.50;48.70;;;;;;484516;246;1186;-76
2022/05/23 03:50:08;;;;;;;;;;;21.40;48.90;;;;;;484559;246;1133;-76
2022/05/23 03:52:10;;;;;;;;;;;21.30;49.10;;;;;;484783;242;1162;-76
2022/05/23 03:54:11;;;;;;;;;;;21.40;48.90;;;;;;484605;242;1242;-76
2022/05/23 03:56:12;;;;;;;;;;;21.30;49.00;;;;;;484593;246;1092;-76
2022/05/23 03:58:14;;;;;;;;;;;21.30;49.10;;;;;;484891;246;1074;-76
2022/05/23 04:00:15;;;;;;;;;;;21.20;49.20;;;;;;484639;246;1018;-76
2022/05/23 04:02:16;;;;;;;;;;;21.20;49.40;;;;;;484668;246;2183;-78
2022/05/23 04:04:18;;;;;;;;;;;21.20;49.20;;;;;;484771;246;1111;-79
2022/05/23 04:06:19;;;;;;;;;;;21.20;49.40;;;;;;484649;246;1063;-78
2022/05/23 04:08:20;;;;;;;;;;;21.30;49.20;;;;;;484633;246;1345;-78
2022/05/23 04:10:21;;;;;;;;;;;21.50;48.70;;;;;;484596;246;974;-78
2022/05/23 04:12:23;;;;;;;;;;;21.60;48.60;;;;;;484705;246;1109;-78
2022/05/23 04:14:25;;;;;;;;;;;21.50;48.90;;;;;;484728;246;1084;-78
2022/05/23 04:16:28;;;;;;;;;;;21.40;49.10;;;;;;484792;246;1500;-78
2022/05/23 04:18:27;;;;;;;;;;;21.30;49.40;;;;;;484682;246;1512;-78
2022/05/23 04:20:28;;;;;;;;;;;21.20;49.60;;;;;;484616;246;1188;-78
2022/05/23 04:22:29;;;;;;;;;;;21.10;49.70;;;;;;484843;246;2191;-78
2022/05/23 04:24:31;;;;;;;;;;;21.10;49.60;;;;;;484847;246;998;-78
2022/05/23 04:26:32;;;;;;;;;;;21.00;49.80;;;;;;484675;242;1080;-78
2022/05/23 04:28:33;;;;;;;;;;;21.10;49.80;;;;;;484643;246;1093;-78
2022/05/23 04:30:35;;;;;;;;;;;21.00;50.00;;;;;;484713;246;1161;-78
2022/05/23 04:35:13;;;;;;;;;;;21.00;50.10;;;;;;484615;246;1156;-78
2022/05/23 04:37:15;;;;;;;;;;;21.00;50.00;;;;;;484828;246;1073;-78
2022/05/23 04:39:16;;;;;;;;;;;21.00;50.00;;;;;;484452;246;1134;-78
2022/05/23 04:41:17;;;;;;;;;;;21.00;50.00;;;;;;484612;246;2191;-79
2022/05/23 04:43:19;;;;;;;;;;;21.00;49.90;;;;;;484533;246;1115;-78
2022/05/23 04:45:20;;;;;;;;;;;21.00;50.10;;;;;;484726;246;1158;-78
2022/05/23 04:49:41;;;;;;;;;;;20.90;50.20;;;;;;484550;246;1110;-78
2022/05/23 04:51:43;;;;;;;;;;;21.00;50.30;;;;;;484505;246;1098;-78
2022/05/23 04:53:44;;;;;;;;;;;21.00;50.20;;;;;;484442;246;1090;-78
2022/05/23 04:55:46;;;;;;;;;;;21.00;50.30;;;;;;484564;246;1212;-78
2022/05/23 04:57:47;;;;;;;;;;;21.00;50.30;;;;;;484649;246;1132;-79
2022/05/23 04:59:48;;;;;;;;;;;21.00;50.20;;;;;;484651;246;1150;-78
2022/05/23 05:01:49;;;;;;;;;;;21.00;50.30;;;;;;484709;246;2195;-78
2022/05/23 05:03:53;;;;;;;;;;;20.90;50.40;;;;;;484666;246;1127;-78
2022/05/23 05:05:52;;;;;;;;;;;20.80;50.60;;;;;;484634;246;1371;-78
2022/05/23 05:07:53;;;;;;;;;;;20.80;50.60;;;;;;484633;246;1090;-78
2022/05/23 05:09:55;;;;;;;;;;;21.00;50.40;;;;;;484786;246;1167;-78
2022/05/23 05:11:56;;;;;;;;;;;21.00;50.10;;;;;;484542;246;1114;-78
2022/05/23 05:13:57;;;;;;;;;;;21.10;50.00;;;;;;484618;246;1111;-78
2022/05/23 05:15:59;;;;;;;;;;;21.10;50.00;;;;;;484683;246;1069;-78
2022/05/23 05:18:00;;;;;;;;;;;21.10;50.00;;;;;;484523;246;1155;-78
2022/05/23 05:20:01;;;;;;;;;;;21.00;50.10;;;;;;484511;246;1084;-78
2022/05/23 05:22:03;;;;;;;;;;;21.00;50.30;;;;;;484519;246;2191;-78
2022/05/23 05:24:04;;;;;;;;;;;21.00;50.30;;;;;;484576;246;997;-78
2022/05/23 05:26:05;;;;;;;;;;;21.00;50.40;;;;;;484602;246;1075;-78
2022/05/23 05:28:07;;;;;;;;;;;21.10;50.40;;;;;;484504;246;1108;-78
2022/05/23 05:30:08;;;;;;;;;;;21.10;50.10;;;;;;484573;246;1042;-78
2022/05/23 05:32:09;;;;;;;;;;;21.20;49.80;;;;;;484489;246;1162;-78
2022/05/23 05:34:11;;;;;;;;;;;21.40;49.60;;;;;;484491;246;1000;-78
2022/05/23 05:36:12;;;;;;;;;;;21.50;49.40;;;;;;484341;242;1149;-78
2022/05/23 05:38:14;;;;;;;;;;;21.40;49.60;;;;;;484374;246;1027;-78
2022/05/23 05:40:15;;;;;;;;;;;21.40;49.80;;;;;;484456;246;1002;-78
2022/05/23 05:42:17;;;;;;;;;;;21.40;49.80;;;;;;484429;246;2179;-78
2022/05/23 05:44:19;;;;;;;;;;;21.30;49.90;;;;;;484519;246;1043;-78
2022/05/23 05:46:19;;;;;;;;;;;21.20;50.10;;;;;;484524;246;1239;-78
2022/05/23 05:48:21;;;;;;;;;;;21.10;50.20;;;;;;484447;246;1186;-78
2022/05/23 05:50:23;;;;;;;;;;;21.10;50.30;;;;;;484493;246;1004;-78
2022/05/23 05:52:24;;;;;;;;;;;21.10;50.40;;;;;;484599;246;1341;-78
2022/05/23 05:54:26;;;;;;;;;;;21.20;50.50;;;;;;484573;246;1206;-78
2022/05/23 05:56:26;;;;;;;;;;;21.20;50.40;;;;;;484370;246;1241;-78
2022/05/23 05:58:28;;;;;;;;;;;21.10;50.60;;;;;;484418;246;1144;-78
2022/05/23 06:00:29;;;;;;;;;;;21.00;50.80;;;;;;484364;246;1143;-78
2022/05/23 06:02:30;;;;;;;;;;;21.00;50.80;;;;;;484372;246;2187;-78
2022/05/23 06:04:32;;;;;;;;;;;21.00;50.90;;;;;;484578;246;1078;-78
2022/05/23 06:11:26;;;;;;;;;;;21.00;50.80;;;;;;484011;246;1282;-78
2022/05/23 06:13:29;;;;;;;;;;;21.20;50.40;;;;;;484359;246;1124;-78
2022/05/23 06:15:29;;;;;;;;;;;21.30;50.20;;;;;;484100;246;1469;-78
2022/05/23 06:17:30;;;;;;;;;;;21.20;50.30;;;;;;484269;246;1113;-78
2022/05/23 06:19:32;;;;;;;;;;;21.20;50.30;;;;;;484413;246;1082;-79
2022/05/23 06:21:33;;;;;;;;;;;21.10;50.40;;;;;;483999;246;2183;-78
2022/05/23 06:23:34;;;;;;;;;;;21.10;50.60;;;;;;484094;246;1111;-78
2022/05/23 06:25:36;;;;;;;;;;;21.00;50.70;;;;;;484161;242;1202;-78
2022/05/23 06:27:37;;;;;;;;;;;21.00;50.80;;;;;;484514;246;1089;-78
2022/05/23 06:29:39;;;;;;;;;;;20.90;51.10;;;;;;484341;246;1052;-78
2022/05/23 06:31:40;;;;;;;;;;;20.90;51.10;;;;;;484442;246;1138;-78
2022/05/23 06:33:41;;;;;;;;;;;20.90;51.10;;;;;;484251;246;1159;-78
2022/05/23 06:35:43;;;;;;;;;;;21.00;51.20;;;;;;484166;246;1062;-78
2022/05/23 06:37:44;;;;;;;;;;;21.00;50.80;;;;;;484473;246;1058;-78
2022/05/23 06:39:45;;;;;;;;;;;21.00;50.80;;;;;;484135;246;1140;-78
2022/05/23 06:41:47;;;;;;;;;;;21.10;50.70;;;;;;484041;246;2198;-78
2022/05/23 06:43:48;;;;;;;;;;;21.10;50.70;;;;;;484320;246;1116;-79
2022/05/23 06:45:49;;;;;;;;;;;21.20;50.80;;;;;;484517;246;1246;-78
2022/05/23 06:47:51;;;;;;;;;;;21.20;50.60;;;;;;484036;246;1133;-78
2022/05/23 06:49:52;;;;;;;;;;;21.20;50.70;;;;;;484073;246;1143;-78
2022/05/23 06:51:53;;;;;;;;;;;21.20;50.80;;;;;;484088;246;1173;-78
2022/05/23 06:53:56;;;;;;;;;;;21.20;50.60;;;;;;484072;246;1088;-78
2022/05/23 06:55:56;;;;;;;;;;;21.30;50.70;;;;;;484041;246;1400;-78
2022/05/23 06:57:57;;;;;;;;;;;21.20;50.70;;;;;;484338;246;1048;-78
2022/05/23 06:59:59;;;;;;;;;;;21.30;50.70;;;;;;484074;246;1070;-78
2022/05/23 07:02:01;;;;;;;;;;;21.30;50.60;;;;;;484104;246;2183;-79
2022/05/23 07:04:01;;;;;;;;;;;21.30;50.70;;;;;;483990;246;1232;-78
2022/05/23 07:13:01;;;;;;;;;;;21.40;50.50;;;;;;483815;246;1300;-78
2022/05/23 07:15:03;;;;;;;;;;;21.50;50.30;;;;;;483762;246;1103;-78
2022/05/23 07:17:05;;;;;;;;;;;21.60;50.10;;;;;;483772;246;1527;-78
2022/05/23 07:19:05;;;;;;;;;;;21.50;50.00;;;;;;483960;246;1939;-78
2022/05/23 07:21:07;;;;;;;;;;;21.50;50.30;;;;;;483852;246;1217;-78
2022/05/23 07:23:08;;;;;;;;;;;21.40;50.40;;;;;;484415;246;2168;-78
2022/05/23 07:25:09;;;;;;;;;;;21.40;50.50;;;;;;484070;246;1079;-78
2022/05/23 07:27:12;;;;;;;;;;;21.40;50.60;;;;;;483831;246;1112;-79
2022/05/23 07:29:12;;;;;;;;;;;21.40;50.60;;;;;;483703;246;1379;-78
2022/05/23 07:31:13;;;;;;;;;;;21.40;50.70;;;;;;483857;246;1032;-78
2022/05/23 07:33:15;;;;;;;;;;;21.30;50.70;;;;;;484251;246;1144;-78
2022/05/23 07:35:16;;;;;;;;;;;21.30;50.70;;;;;;484013;246;1196;-78
2022/05/23 07:37:18;;;;;;;;;;;21.30;50.80;;;;;;483952;246;1237;-78
2022/05/23 07:39:19;;;;;;;;;;;21.40;50.80;;;;;;484004;246;1064;-79
2022/05/23 07:41:21;;;;;;;;;;;21.40;50.70;;;;;;484213;246;1221;-78
2022/05/23 07:43:22;;;;;;;;;;;21.40;50.60;;;;;;483894;246;2188;-79
2022/05/23 07:45:23;;;;;;;;;;;21.40;50.70;;;;;;483969;246;1127;-79
2022/05/23 07:47:24;;;;;;;;;;;21.30;50.80;;;;;;484096;246;1542;-79
2022/05/23 07:49:26;;;;;;;;;;;21.30;50.90;;;;;;483769;246;1150;-78
2022/05/23 07:51:29;;;;;;;;;;;21.30;51.00;;;;;;483646;246;1291;-78
2022/05/23 08:00:32;;;;;;;;;;;21.20;51.30;;;;;;483949;246;1119;-78
2022/05/23 08:02:34;;;;;;;;;;;21.20;51.30;;;;;;484306;246;2191;-78
2022/05/23 08:04:35;;;;;;;;;;;21.20;51.30;;;;;;484061;246;1226;-78
2022/05/23 08:06:36;;;;;;;;;;;21.20;51.40;;;;;;483945;242;1127;-78
2022/05/23 08:08:38;;;;;;;;;;;21.30;51.30;;;;;;484035;246;1104;-78
2022/05/23 08:10:39;;;;;;;;;;;21.30;51.30;;;;;;484053;246;1154;-78
2022/05/23 08:12:40;;;;;;;;;;;21.30;51.30;;;;;;484271;246;1300;-78
2022/05/23 08:14:42;;;;;;;;;;;21.30;51.30;;;;;;483883;246;1173;-78
2022/05/23 08:16:43;;;;;;;;;;;21.40;51.40;;;;;;484077;246;1177;-79
2022/05/23 08:18:44;;;;;;;;;;;21.40;51.40;;;;;;484132;246;1123;-79
2022/05/23 08:20:46;;;;;;;;;;;21.40;51.40;;;;;;483751;246;1338;-78
2022/05/23 08:22:51;;;;;;;;;;;21.40;51.40;;;;;;484029;246;2456;-78
2022/05/23 08:24:48;;;;;;;;;;;21.40;51.40;;;;;;483615;246;1378;-78
2022/05/23 08:26:50;;;;;;;;;;;21.40;51.40;;;;;;482858;246;1159;-78
2022/05/23 08:28:51;;;;;;;;;;;21.40;51.40;;;;;;483947;246;1095;-78
2022/05/23 08:30:53;;;;;;;;;;;21.40;51.40;;;;;;483774;246;1118;-78
2022/05/23 08:32:54;;;;;;;;;;;21.40;51.50;;;;;;483775;246;1315;-78
2022/05/23 08:34:55;;;;;;;;;;;21.40;51.40;;;;;;483517;246;1102;-78
2022/05/23 08:36:58;;;;;;;;;;;21.60;51.00;;;;;;483718;246;1088;-78
2022/05/23 08:38:58;;;;;;;;;;;21.70;51.10;;;;;;484313;246;1363;-78
2022/05/23 08:40:59;;;;;;;;;;;21.60;51.10;;;;;;484020;246;1119;-78
2022/05/23 08:43:01;;;;;;;;;;;21.70;51.10;;;;;;484477;246;2183;-78
2022/05/23 08:45:03;;;;;;;;;;;21.60;51.30;;;;;;484391;246;1851;-78
2022/05/23 08:47:03;;;;;;;;;;;21.50;51.40;;;;;;484219;246;1246;-78
2022/05/23 08:49:05;;;;;;;;;;;21.50;51.60;;;;;;483985;246;1045;-78
2022/05/23 08:51:07;;;;;;;;;;;21.40;51.80;;;;;;484221;246;1132;-78
2022/05/23 08:53:07;;;;;;;;;;;21.40;52.00;;;;;;483732;246;1434;-78
2022/05/23 08:55:09;;;;;;;;;;;21.40;51.90;;;;;;483668;246;1206;-78
2022/05/23 08:57:10;;;;;;;;;;;21.50;51.80;;;;;;483783;246;1104;-78
2022/05/23 08:59:11;;;;;;;;;;;21.50;51.50;;;;;;484009;246;1048;-78
2022/05/23 09:01:13;;;;;;;;;;;21.40;51.80;;;;;;484190;246;1383;-78
2022/05/23 09:03:14;;;;;;;;;;;21.40;52.10;;;;;;484369;246;2255;-78
2022/05/23 09:05:16;;;;;;;;;;;21.30;52.20;;;;;;484032;246;1163;-78
2022/05/23 09:07:17;;;;;;;;;;;21.20;52.30;;;;;;484131;246;1279;-78
2022/05/23 09:09:18;;;;;;;;;;;21.20;52.40;;;;;;484071;246;1054;-78
2022/05/23 09:11:19;;;;;;;;;;;21.20;52.50;;;;;;484023;246;1170;-78
2022/05/23 09:13:21;;;;;;;;;;;21.20;52.50;;;;;;483609;246;1123;-78
2022/05/23 09:15:22;;;;;;;;;;;21.30;52.30;;;;;;483919;246;1085;-78
2022/05/23 09:17:23;;;;;;;;;;;21.40;52.20;;;;;;484506;246;1021;-78
2022/05/23 09:19:25;;;;;;;;;;;21.40;52.00;;;;;;483819;246;1134;-78
2022/05/23 09:22:12;;;;;;;;;;;21.50;51.90;;;;;;483639;246;1090;-78
2022/05/23 09:23:28;;;;;;;;;;;21.50;51.90;;;;;;482581;246;2199;-78
2022/05/23 09:25:29;;;;;;;;;;;21.40;51.90;;;;;;483590;246;1172;-78
2022/05/23 09:27:30;;;;;;;;;;;21.30;52.20;;;;;;484075;246;1343;-78
2022/05/23 09:29:31;;;;;;;;;;;21.30;52.20;;;;;;484526;246;1074;-78
2022/05/23 09:31:33;;;;;;;;;;;21.30;52.30;;;;;;483772;242;1144;-78
2022/05/23 09:33:35;;;;;;;;;;;21.40;52.50;;;;;;483879;246;1394;-78
2022/05/23 09:35:36;;;;;;;;;;;21.30;52.30;;;;;;483884;246;1150;-78
2022/05/23 09:37:37;;;;;;;;;;;21.30;52.40;;;;;;484107;246;1440;-78
2022/05/23 09:39:38;;;;;;;;;;;21.30;52.40;;;;;;484166;246;1159;-78
2022/05/23 09:48:37;;;;;;;;;;;21.30;52.40;;;;;;483903;246;1163;-78
2022/05/23 09:50:39;;;;;;;;;;;21.30;52.40;;;;;;483885;246;1241;-78
2022/05/23 09:52:42;;;;;;;;;;;21.30;52.30;;;;;;484050;243;1239;-78
2022/05/23 09:54:43;;;;;;;;;;;21.30;52.30;;;;;;484242;246;1355;-78
2022/05/23 09:56:44;;;;;;;;;;;21.30;52.40;;;;;;483807;246;1412;-78
2022/05/23 09:58:45;;;;;;;;;;;21.20;52.50;;;;;;483841;246;1562;-78
2022/05/23 10:00:45;;;;;;;;;;;21.20;52.40;;;;;;483909;246;1098;-78
2022/05/23 10:02:47;;;;;;;;;;;21.30;52.40;;;;;;484453;246;2188;-78
2022/05/23 10:04:49;;;;;;;;;;;21.30;52.30;;;;;;483942;243;1131;-77
2022/05/23 10:06:50;;;;;;;;;;;21.20;52.50;;;;;;483913;246;1412;-78
2022/05/23 10:08:51;;;;;;;;;;;21.20;52.50;;;;;;483948;246;1083;-78
2022/05/23 10:10:52;;;;;;;;;;;21.20;52.40;;;;;;483860;246;1059;-78
2022/05/23 10:12:54;;;;;;;;;;;21.10;52.50;;;;;;483910;246;1057;-78
2022/05/23 10:14:55;;;;;;;;;;;21.20;52.50;;;;;;483909;246;1027;-78
2022/05/23 10:16:56;;;;;;;;;;;21.20;52.30;;;;;;483828;246;1053;-78
2022/05/23 10:18:59;;;;;;;;;;;21.20;52.40;;;;;;483669;246;1166;-78
2022/05/23 10:20:59;;;;;;;;;;;21.20;52.40;;;;;;483419;246;1360;-78
2022/05/23 10:23:00;;;;;;;;;;;21.30;52.00;;;;;;483808;246;2204;-78
2022/05/23 10:25:01;;;;;;;;;;;21.60;51.50;;;;;;483808;246;1122;-78
2022/05/23 10:27:03;;;;;;;;;;;21.50;51.50;;;;;;483637;246;1308;-78
2022/05/23 10:29:04;;;;;;;;;;;21.60;51.60;;;;;;483678;243;1110;-78
2022/05/23 10:31:05;;;;;;;;;;;21.50;51.50;;;;;;483962;246;1173;-78
2022/05/23 10:33:07;;;;;;;;;;;21.50;51.80;;;;;;483751;246;1145;-78
2022/05/23 10:35:08;;;;;;;;;;;21.40;51.90;;;;;;484019;246;1163;-78
2022/05/23 10:37:09;;;;;;;;;;;21.30;52.10;;;;;;484036;246;1085;-78
2022/05/23 10:43:50;;;;;;;;;;;21.50;51.80;;;;;;484023;246;2163;-78
2022/05/23 10:45:51;;;;;;;;;;;21.50;51.80;;;;;;483755;237;1208;-78
2022/05/23 10:47:52;;;;;;;;;;;21.50;51.90;;;;;;483838;246;1277;-79
2022/05/23 10:49:54;;;;;;;;;;;21.40;51.90;;;;;;483841;246;1136;-79
2022/05/23 10:51:55;;;;;;;;;;;21.40;52.00;;;;;;483747;246;1126;-78
2022/05/23 10:53:56;;;;;;;;;;;21.40;52.00;;;;;;483839;246;1088;-78
2022/05/23 10:55:58;;;;;;;;;;;21.40;51.90;;;;;;483851;246;1143;-78
2022/05/23 10:57:59;;;;;;;;;;;21.30;52.10;;;;;;483607;246;1109;-78
2022/05/23 11:00:02;;;;;;;;;;;21.20;52.10;;;;;;483585;246;1039;-78
2022/05/23 11:02:02;;;;;;;;;;;21.20;52.10;;;;;;483550;246;1305;-77
2022/05/23 11:04:03;;;;;;;;;;;21.20;52.20;;;;;;483833;246;2188;-78
2022/05/23 11:06:04;;;;;;;;;;;21.20;52.20;;;;;;483752;246;1208;-78
2022/05/23 11:08:06;;;;;;;;;;;21.20;52.30;;;;;;483733;246;1014;-78
2022/05/23 11:10:07;;;;;;;;;;;21.10;52.50;;;;;;484129;246;1038;-78
2022/05/23 11:12:08;;;;;;;;;;;21.10;52.40;;;;;;483723;246;1130;-78
2022/05/23 11:14:10;;;;;;;;;;;21.10;52.40;;;;;;483647;246;1191;-78
2022/05/23 11:16:11;;;;;;;;;;;21.10;52.50;;;;;;483847;246;1075;-78
2022/05/23 11:18:12;;;;;;;;;;;21.10;52.40;;;;;;484020;246;1153;-78
2022/05/23 11:20:14;;;;;;;;;;;21.10;52.30;;;;;;483738;246;1131;-78
2022/05/23 11:22:15;;;;;;;;;;;21.20;52.30;;;;;;484000;246;1107;-78
2022/05/23 11:24:17;;;;;;;;;;;21.30;52.10;;;;;;483832;246;2194;-79
2022/05/23 11:26:18;;;;;;;;;;;21.30;52.10;;;;;;483963;246;1319;-78
2022/05/23 11:35:42;;;;;;;;;;;21.10;52.50;;;;;;467239;254;1206;-78
2022/05/23 11:37:44;;;;;;;;;;;21.00;52.60;;;;;;467837;246;1482;-78
2022/05/23 11:39:44;;;;;;;;;;;21.10;52.50;;;;;;483782;246;1443;-78
2022/05/23 11:41:46;;;;;;;;;;;21.10;52.50;;;;;;484035;246;1126;-78
2022/05/23 11:43:47;;;;;;;;;;;21.20;52.20;;;;;;483740;246;2186;-78
2022/05/23 11:45:59;;;;;;;;;;;21.20;52.30;;;;;;483759;246;1081;-78
2022/05/23 11:47:59;;;;;;;;;;;21.20;52.20;;;;;;483902;246;1302;-78
2022/05/23 11:50:00;;;;;;;;;;;21.10;52.30;;;;;;483793;246;1089;-78
2022/05/23 11:52:02;;;;;;;;;;;21.10;52.20;;;;;;483703;246;1173;-78
2022/05/23 11:54:06;;;;;;;;;;;21.10;52.40;;;;;;483180;246;1279;-78
2022/05/23 11:56:06;;;;;;;;;;;21.10;52.60;;;;;;483560;246;1230;-78
2022/05/23 11:58:07;;;;;;;;;;;21.10;52.60;;;;;;483490;246;1855;-78
2022/05/23 12:00:08;;;;;;;;;;;21.20;52.40;;;;;;483494;246;1113;-78
2022/05/23 12:02:10;;;;;;;;;;;21.20;52.30;;;;;;483990;246;1129;-78
2022/05/23 12:04:11;;;;;;;;;;;21.30;52.20;;;;;;483674;246;2199;-78
2022/05/23 12:06:12;;;;;;;;;;;21.20;52.40;;;;;;483607;246;1212;-78
2022/05/23 12:08:13;;;;;;;;;;;21.10;52.50;;;;;;483871;246;1115;-78
2022/05/23 12:10:15;;;;;;;;;;;21.10;52.60;;;;;;483557;246;1126;-78
2022/05/23 12:12:16;;;;;;;;;;;21.10;52.80;;;;;;483532;246;1167;-78
2022/05/23 12:14:17;;;;;;;;;;;21.10;52.90;;;;;;483544;246;1061;-78
2022/05/23 12:16:20;;;;;;;;;;;21.10;52.80;;;;;;483499;246;1211;-78
2022/05/23 12:18:20;;;;;;;;;;;21.10;52.80;;;;;;483547;246;1351;-78
2022/05/23 12:20:22;;;;;;;;;;;21.10;52.70;;;;;;483971;246;1093;-78
2022/05/23 12:22:23;;;;;;;;;;;21.10;52.70;;;;;;483922;246;1156;-78
2022/05/23 12:24:24;;;;;;;;;;;21.00;52.70;;;;;;483971;246;2186;-78
2022/05/23 12:26:26;;;;;;;;;;;21.20;52.80;;;;;;484015;246;1139;-78
2022/05/23 12:28:27;;;;;;;;;;;21.10;52.50;;;;;;475148;251;1023;-78
2022/05/23 12:30:29;;;;;;;;;;;21.20;52.60;;;;;;467337;255;1112;-78
2022/05/23 12:32:30;;;;;;;;;;;21.20;52.60;;;;;;467213;254;1197;-78
2022/05/23 12:34:31;;;;;;;;;;;21.30;52.40;;;;;;467219;254;1087;-78
2022/05/23 12:36:33;;;;;;;;;;;21.50;52.00;;;;;;467460;254;1053;-78
2022/05/23 12:38:34;;;;;;;;;;;21.50;51.80;;;;;;467318;254;1008;-78
2022/05/23 12:40:35;;;;;;;;;;;21.50;51.90;;;;;;467564;254;1139;-78
2022/05/23 12:42:37;;;;;;;;;;;21.50;51.80;;;;;;467030;254;938;-78
2022/05/23 12:44:38;;;;;;;;;;;21.50;52.00;;;;;;467321;254;2201;-78
2022/05/23 12:46:39;;;;;;;;;;;21.40;52.20;;;;;;467687;254;1297;-78
2022/05/23 12:48:40;;;;;;;;;;;21.50;52.30;;;;;;467281;254;1109;-78
2022/05/23 12:50:42;;;;;;;;;;;21.40;52.30;;;;;;467238;254;1169;-78
2022/05/23 12:52:43;;;;;;;;;;;21.50;52.20;;;;;;467515;254;1182;-78
2022/05/23 12:54:44;;;;;;;;;;;21.50;52.20;;;;;;467080;254;1133;-78
2022/05/23 12:56:46;;;;;;;;;;;21.50;52.30;;;;;;466825;254;1112;-78